Time;durP1;ratioP1;P1;durP2;ratioP2;P2;SDS_P1;SDS_P2;PMS_P1;PMS_P2;Temp;Humidity;BMP_temperature;BMP_pressure;BME280_temperature;BME280_humidity;BME280_pressure;Samples;Min_cycle;Max_cycle;Signal;HPM_P1;HPM_P2
2022/09/19 00:00:10;;;;;;;;;;;;;;;9.70;79.95;99886.97;1087597;54;19942;-80
2022/09/19 00:01:15;;;;;;;;;;;;;;;9.68;79.66;99890.59;1087665;54;19942;-79
2022/09/19 00:02:25;;;;;;;;;;;;;;;9.59;80.24;99893.31;1087571;54;19950;-80
2022/09/19 00:03:50;;;;;;;;;;;;;;;9.48;80.59;99900.47;1087597;54;19942;-80
2022/09/19 00:07:56;;;;;;;;;;;;;;;9.48;80.91;99903.13;1088273;47;19943;-81
2022/09/19 00:10:47;;;;;;;;;;;;;;;9.27;81.48;99897.09;1087669;54;19994;-82
2022/09/19 00:11:59;;;;;;;;;;;;;;;9.20;81.94;99895.00;1087849;54;20003;-80
2022/09/19 00:16:24;;;;;;;;;;;;;;;9.20;81.76;99908.34;1087748;54;20027;-81
2022/09/19 00:17:49;;;;;;;;;;;;;;;9.17;81.88;99907.78;1088046;54;19950;-80
2022/09/19 00:19:14;;;;;;;;;;;;;;;9.14;81.82;99903.56;1087997;54;19942;-80
2022/09/19 00:27:03;;;;;;;;;;;;;;;8.99;81.54;99918.25;1087540;54;19935;-79
2022/09/19 00:28:09;;;;;;;;;;;;;;;9.02;81.81;99907.34;1087650;54;19926;-81
2022/09/19 00:29:15;;;;;;;;;;;;;;;8.87;81.83;99914.88;1089982;47;19939;-80
2022/09/19 00:31:55;;;;;;;;;;;;;;;8.96;82.07;99911.38;1088525;54;19983;-80
2022/09/19 00:33:31;;;;;;;;;;;;;;;8.92;81.98;99909.13;1088451;54;19951;-81
2022/09/19 00:34:45;;;;;;;;;;;;;;;8.90;81.56;99915.44;1088437;54;19995;-80
2022/09/19 00:36:19;;;;;;;;;;;;;;;9.02;82.03;99904.66;1089512;46;19943;-81
2022/09/19 00:49:48;;;;;;;;;;;;;;;8.92;81.61;99914.47;1087934;54;19942;-80
2022/09/19 00:51:17;;;;;;;;;;;;;;;8.75;81.90;99916.81;1087864;54;19934;-79
2022/09/19 00:54:36;;;;;;;;;;;;;;;8.77;82.06;99917.53;1088014;54;20021;-80
2022/09/19 00:56:05;;;;;;;;;;;;;;;;;;;;;
2022/09/19 01:03:16;;;;;;;;;;;;;;;8.53;82.91;99926.72;1088340;54;19933;-81
2022/09/19 03:33:46;;;;;;;;;;;;;;;;;;;;;
2022/09/19 03:41:32;;;;;;;;;;;;;;;9.14;78.26;99966.72;1086655;54;19938;-84
2022/09/19 03:44:19;;;;;;;;;;;;;;;9.23;77.88;99997.91;1087810;54;19927;-80
2022/09/19 03:45:20;;;;;;;;;;;;;;;9.32;77.87;100004.25;1087524;54;19967;-79
2022/09/19 03:46:24;;;;;;;;;;;;;;;9.25;77.37;100000.44;1087727;47;19943;-81
2022/09/19 03:47:25;;;;;;;;;;;;;;;9.28;78.12;100001.00;1087460;54;19982;-80
2022/09/19 03:48:32;;;;;;;;;;;;;;;9.30;77.79;100004.41;1088234;47;19942;-80
2022/09/19 03:49:33;;;;;;;;;;;;;;;9.38;77.23;100009.03;1088555;47;19974;-79
2022/09/19 03:50:36;;;;;;;;;;;;;;;9.43;77.58;100008.59;1087437;54;20707;-80
2022/09/19 03:51:37;;;;;;;;;;;;;;;9.46;77.40;100009.16;1087333;54;19939;-80
2022/09/19 03:52:41;;;;;;;;;;;;;;;9.39;76.88;100016.06;1087848;47;19929;-80
2022/09/19 03:53:42;;;;;;;;;;;;;;;9.43;76.76;100009.47;1090331;39;20569;-79
2022/09/19 03:54:48;;;;;;;;;;;;;;;9.43;76.87;100009.47;1087529;54;20001;-81
2022/09/19 03:55:50;;;;;;;;;;;;;;;9.47;76.89;100008.19;1087469;54;19934;-79
2022/09/19 03:56:56;;;;;;;;;;;;;;;9.42;77.21;100018.44;1087904;47;19947;-80
2022/09/19 03:57:57;;;;;;;;;;;;;;;9.50;77.14;100013.25;1088104;47;19946;-79
2022/09/19 03:59:01;;;;;;;;;;;;;;;9.52;76.92;100013.13;1087335;54;19951;-79
2022/09/19 04:00:03;;;;;;;;;;;;;;;9.55;76.48;100018.19;1087737;47;19939;-79
2022/09/19 04:01:08;;;;;;;;;;;;;;;9.47;76.73;100015.38;1087223;54;19934;-80
2022/09/19 04:02:09;;;;;;;;;;;;;;;9.47;76.81;100021.53;1088597;47;19975;-79
2022/09/19 04:03:13;;;;;;;;;;;;;;;9.39;76.40;100016.06;1087418;54;19949;-80
2022/09/19 04:04:15;;;;;;;;;;;;;;;9.40;76.63;100009.72;1087554;54;19934;-80
2022/09/19 04:05:19;;;;;;;;;;;;;;;9.54;76.63;100021.00;1089119;46;19943;-79
2022/09/19 04:06:23;;;;;;;;;;;;;;;9.42;76.80;100023.78;1088886;46;19939;-78
2022/09/19 04:07:27;;;;;;;;;;;;;;;9.52;76.94;100024.66;1092317;39;20153;-80
2022/09/19 04:08:30;;;;;;;;;;;;;;;9.59;76.55;100022.25;1087638;54;19943;-80
2022/09/19 04:09:32;;;;;;;;;;;;;;;9.50;76.54;100023.94;1087818;54;19945;-80
2022/09/19 04:10:36;;;;;;;;;;;;;;;9.38;76.98;100019.69;1089688;46;19945;-80
2022/09/19 04:11:38;;;;;;;;;;;;;;;9.47;77.15;100026.88;1087925;54;19946;-80
2022/09/19 04:12:56;;;;;;;;;;;;;;;9.36;77.29;100025.19;1089845;46;19946;-83
2022/09/19 04:14:15;;;;;;;;;;;;;;;9.41;76.95;100023.91;1088812;46;19943;-81
2022/09/19 04:15:17;;;;;;;;;;;;;;;9.36;77.15;100025.19;1088077;54;19975;-81
2022/09/19 04:16:21;;;;;;;;;;;;;;;9.34;77.29;100021.78;1087913;54;19933;-79
2022/09/19 04:17:22;;;;;;;;;;;;;;;9.36;77.24;100026.97;1089562;39;20693;-81
2022/09/19 04:18:26;;;;;;;;;;;;;;;9.37;77.02;100026.00;1088066;54;20002;-80
2022/09/19 04:19:29;;;;;;;;;;;;;;;9.40;76.73;100031.06;1088104;54;19949;-80
2022/09/19 04:20:33;;;;;;;;;;;;;;;9.47;76.93;100029.53;1088074;54;19943;-80
2022/09/19 04:21:35;;;;;;;;;;;;;;;9.49;76.58;100038.25;1088061;54;19969;-80
2022/09/19 04:22:39;;;;;;;;;;;;;;;9.57;76.61;100031.38;1088128;54;19943;-81
2022/09/19 04:23:40;;;;;;;;;;;;;;;9.46;76.99;100024.34;1088090;54;20002;-81
2022/09/19 04:24:44;;;;;;;;;;;;;;;9.42;76.88;100028.25;1087906;54;19942;-80
2022/09/19 04:25:46;;;;;;;;;;;;;;;9.46;76.81;100035.84;1088043;54;19942;-80
2022/09/19 04:26:50;;;;;;;;;;;;;;;9.51;76.99;100038.97;1088253;54;19986;-80
2022/09/19 04:27:53;;;;;;;;;;;;;;;9.63;76.62;100030.84;1088257;54;19942;-80
2022/09/19 04:28:57;;;;;;;;;;;;;;;9.70;76.48;100033.78;1088189;54;19974;-80
2022/09/19 04:29:59;;;;;;;;;;;;;;;9.64;76.41;100033.34;1088152;54;19927;-80
2022/09/19 04:31:02;;;;;;;;;;;;;;;9.54;76.29;100040.50;1088061;54;19950;-81
2022/09/19 04:32:04;;;;;;;;;;;;;;;9.60;76.54;100041.78;1087994;54;19935;-81
2022/09/19 04:33:10;;;;;;;;;;;;;;;9.71;76.38;100033.66;1088203;54;19943;-80
2022/09/19 04:34:14;;;;;;;;;;;;;;;9.63;76.13;100025.50;1088047;54;20907;-80
2022/09/19 04:35:18;;;;;;;;;;;;;;;9.50;76.54;100036.41;1088013;54;19949;-79
2022/09/19 04:36:23;;;;;;;;;;;;;;;9.63;76.52;100041.53;1088118;54;19943;-80
2022/09/19 04:37:24;;;;;;;;;;;;;;;9.59;76.21;100040.09;1088066;54;19926;-80
2022/09/19 04:38:29;;;;;;;;;;;;;;;9.61;76.26;100038.13;1087969;54;19991;-80
2022/09/19 04:39:30;;;;;;;;;;;;;;;9.63;76.55;100036.19;1088113;54;20540;-79
2022/09/19 04:40:38;;;;;;;;;;;;;;;9.64;76.82;100043.19;1087939;54;20677;-79
2022/09/19 04:41:43;;;;;;;;;;;;;;;9.60;76.40;100041.78;1087693;54;19970;-79
2022/09/19 04:42:45;;;;;;;;;;;;;;;9.67;76.26;100046.44;1088034;54;20629;-79
2022/09/19 04:43:53;;;;;;;;;;;;;;;9.65;76.52;100039.53;1087934;54;19949;-80
2022/09/19 04:44:54;;;;;;;;;;;;;;;9.55;76.51;100044.88;1088190;54;19942;-80
2022/09/19 04:45:59;;;;;;;;;;;;;;;9.65;76.39;100039.53;1088021;54;19950;-80
2022/09/19 04:47:01;;;;;;;;;;;;;;;9.54;76.78;100043.19;1088420;39;20228;-80
2022/09/19 04:48:06;;;;;;;;;;;;;;;9.59;76.63;100040.09;1088051;54;19942;-79
2022/09/19 04:49:08;;;;;;;;;;;;;;;9.47;76.78;100039.38;1088013;54;19957;-80
2022/09/19 04:50:18;;;;;;;;;;;;;;;9.48;76.98;100044.56;1087959;54;19938;-79
2022/09/19 04:51:21;;;;;;;;;;;;;;;9.50;77.19;100045.28;1087930;54;20666;-80
2022/09/19 04:52:24;;;;;;;;;;;;;;;9.45;77.05;100036.84;1088915;39;20732;-80
2022/09/19 04:53:30;;;;;;;;;;;;;;;9.44;77.38;100053.84;1087840;54;19943;-79
2022/09/19 04:54:35;;;;;;;;;;;;;;;9.57;77.10;100044.72;1088051;54;19976;-80
2022/09/19 04:55:39;;;;;;;;;;;;;;;9.69;76.63;100046.28;1088024;54;19957;-80
2022/09/19 04:56:43;;;;;;;;;;;;;;;9.69;76.89;100051.63;1088053;54;19943;-80
2022/09/19 04:57:47;;;;;;;;;;;;;;;9.73;76.84;100053.03;1087988;54;20048;-81
2022/09/19 04:58:51;;;;;;;;;;;;;;;9.75;76.36;100059.06;1087892;54;20977;-80
2022/09/19 04:59:56;;;;;;;;;;;;;;;9.81;76.02;100055.88;1088061;54;20014;-81
2022/09/19 05:00:57;;;;;;;;;;;;;;;9.75;76.13;100048.41;1087971;54;20007;-81
2022/09/19 05:02:02;;;;;;;;;;;;;;;9.64;76.31;100046.72;1087839;54;19954;-80
2022/09/19 05:03:05;;;;;;;;;;;;;;;9.64;76.46;100049.38;1088028;54;19927;-81
2022/09/19 05:04:09;;;;;;;;;;;;;;;9.65;76.58;100051.06;1087772;54;19991;-81
2022/09/19 05:05:10;;;;;;;;;;;;;;;9.65;76.75;100048.41;1087975;54;19958;-81
2022/09/19 05:06:15;;;;;;;;;;;;;;;9.61;76.98;100048.81;1087857;54;19938;-80
2022/09/19 05:07:19;;;;;;;;;;;;;;;9.64;76.78;100048.50;1087999;54;19942;-81
2022/09/19 05:08:25;;;;;;;;;;;;;;;9.50;76.96;100053.28;1087866;54;19962;-80
2022/09/19 05:09:27;;;;;;;;;;;;;;;9.57;77.09;100058.94;1087938;54;19950;-80
2022/09/19 05:10:31;;;;;;;;;;;;;;;9.49;77.00;100064.94;1087953;54;19959;-80
2022/09/19 05:11:36;;;;;;;;;;;;;;;9.60;76.93;100061.31;1088007;54;20662;-81
2022/09/19 05:12:39;;;;;;;;;;;;;;;9.54;77.12;100064.53;1087817;54;19967;-81
2022/09/19 05:13:42;;;;;;;;;;;;;;;9.49;77.25;100056.94;1087610;54;19943;-80
2022/09/19 05:14:46;;;;;;;;;;;;;;;9.49;77.10;100056.94;1087732;54;19935;-80
2022/09/19 05:15:52;;;;;;;;;;;;;;;9.52;76.97;100070.00;1087592;54;19969;-79
2022/09/19 05:16:54;;;;;;;;;;;;;;;9.52;77.16;100070.00;1087804;54;20600;-83
2022/09/19 05:17:58;;;;;;;;;;;;;;;9.51;77.01;100065.66;1087867;54;19954;-80
2022/09/19 05:18:59;;;;;;;;;;;;;;;9.59;76.93;100069.44;1087836;54;19938;-80
2022/09/19 05:20:10;;;;;;;;;;;;;;;9.43;77.46;100068.16;1087748;54;19943;-79
2022/09/19 05:21:12;;;;;;;;;;;;;;;9.41;77.46;100070.13;1087699;54;19947;-79
2022/09/19 05:22:15;;;;;;;;;;;;;;;9.50;77.47;100069.31;1087865;54;20396;-80
2022/09/19 05:23:17;;;;;;;;;;;;;;;9.60;77.35;100063.13;1087902;54;19951;-80
2022/09/19 05:24:21;;;;;;;;;;;;;;;9.60;77.08;100074.66;1087729;54;19994;-81
2022/09/19 05:25:22;;;;;;;;;;;;;;;9.63;77.03;100078.88;1087893;54;19946;-80
2022/09/19 05:26:26;;;;;;;;;;;;;;;9.59;77.00;100072.13;1087898;54;19934;-80
2022/09/19 05:27:27;;;;;;;;;;;;;;;9.67;77.01;100077.59;1087897;54;19949;-80
2022/09/19 05:28:31;;;;;;;;;;;;;;;9.71;76.96;100081.72;1087719;54;19949;-81
2022/09/19 05:29:36;;;;;;;;;;;;;;;9.71;76.71;100078.19;1087881;54;19950;-80
2022/09/19 05:30:50;;;;;;;;;;;;;;;9.64;76.96;100080.53;1087789;54;19943;-80
2022/09/19 05:31:51;;;;;;;;;;;;;;;9.71;76.57;100078.19;1087903;54;19942;-80
2022/09/19 05:32:54;;;;;;;;;;;;;;;9.67;77.03;100075.81;1087796;54;20284;-81
2022/09/19 05:33:55;;;;;;;;;;;;;;;9.52;77.14;100083.34;1087791;54;19942;-80
2022/09/19 05:35:00;;;;;;;;;;;;;;;9.51;77.53;100073.66;1088473;46;20216;-80
2022/09/19 05:36:02;;;;;;;;;;;;;;;9.55;77.29;100073.38;1087944;54;19967;-80
2022/09/19 05:37:06;;;;;;;;;;;;;;;9.56;77.49;100078.59;1093440;39;20636;-79
2022/09/19 05:38:07;;;;;;;;;;;;;;;9.52;77.66;100072.69;1087580;54;19951;-80
2022/09/19 05:39:11;;;;;;;;;;;;;;;9.50;77.67;100079.13;1087752;54;19950;-80
2022/09/19 05:40:12;;;;;;;;;;;;;;;9.61;77.71;100075.50;1087824;54;19931;-81
2022/09/19 05:41:17;;;;;;;;;;;;;;;9.67;77.28;100074.94;1087822;54;20602;-79
2022/09/19 05:42:18;;;;;;;;;;;;;;;9.50;77.31;100079.13;1090352;39;20756;-79
2022/09/19 05:43:22;;;;;;;;;;;;;;;9.60;77.15;100073.81;1087736;54;19954;-80
2022/09/19 05:44:23;;;;;;;;;;;;;;;9.51;77.40;100081.66;1087177;54;19949;-82
2022/09/19 05:45:27;;;;;;;;;;;;;;;9.54;77.35;100077.03;1087472;54;19927;-80
2022/09/19 05:46:33;;;;;;;;;;;;;;;9.49;77.30;100080.94;1088027;54;19942;-80
2022/09/19 05:47:34;;;;;;;;;;;;;;;9.58;77.32;100078.44;1088050;54;19923;-81
2022/09/19 05:48:48;;;;;;;;;;;;;;;9.52;77.35;100072.69;1087874;54;19939;-80
2022/09/19 05:49:49;;;;;;;;;;;;;;;9.55;77.63;100086.72;1089861;46;19939;-81
2022/09/19 05:50:53;;;;;;;;;;;;;;;9.55;77.29;100092.03;1087814;54;19950;-81
2022/09/19 05:51:55;;;;;;;;;;;;;;;9.63;77.48;100089.56;1087840;54;19950;-81
2022/09/19 05:54:21;;;;;;;;;;;;;;;9.65;76.91;100099.13;1087706;54;19942;-80
2022/09/19 05:55:22;;;;;;;;;;;;;;;9.55;77.39;100095.56;1087894;54;19942;-80
2022/09/19 05:56:26;;;;;;;;;;;;;;;9.60;77.05;100095.16;1087817;54;20528;-81
2022/09/19 05:57:27;;;;;;;;;;;;;;;9.60;77.12;100095.16;1087923;54;19950;-80
2022/09/19 05:58:31;;;;;;;;;;;;;;;9.68;76.79;100095.31;1088405;46;19927;-81
2022/09/19 05:59:32;;;;;;;;;;;;;;;9.73;76.59;100100.25;1087783;54;19950;-80
2022/09/19 06:00:37;;;;;;;;;;;;;;;9.84;76.63;100098.28;1087862;54;19942;-80
2022/09/19 06:01:40;;;;;;;;;;;;;;;9.79;76.77;100105.03;1087899;54;20673;-80
2022/09/19 06:02:44;;;;;;;;;;;;;;;9.70;76.62;100109.38;1087992;54;19943;-80
2022/09/19 06:03:48;;;;;;;;;;;;;;;9.67;76.81;100113.19;1089387;39;20554;-79
2022/09/19 06:04:49;;;;;;;;;;;;;;;9.81;76.54;100109.25;1088008;54;19953;-79
2022/09/19 06:05:55;;;;;;;;;;;;;;;9.93;76.18;100101.09;1089360;46;19998;-80
2022/09/19 06:06:56;;;;;;;;;;;;;;;9.83;76.03;100112.63;1087934;54;20562;-80
2022/09/19 06:08:03;;;;;;;;;;;;;;;9.90;76.66;100112.09;1087732;54;19943;-80
2022/09/19 06:09:07;;;;;;;;;;;;;;;9.91;76.29;100108.44;1087733;54;19990;-80
2022/09/19 06:10:08;;;;;;;;;;;;;;;9.84;76.13;100111.63;1087761;54;19942;-80
2022/09/19 06:11:12;;;;;;;;;;;;;;;9.83;76.44;100109.94;1087759;54;19939;-80
2022/09/19 06:12:13;;;;;;;;;;;;;;;9.96;76.24;100116.84;1087740;54;19965;-79
2022/09/19 06:13:18;;;;;;;;;;;;;;;9.88;76.06;100117.53;1087715;54;19950;-80
2022/09/19 06:14:23;;;;;;;;;;;;;;;9.74;76.57;100123.28;1087424;54;19946;-80
2022/09/19 06:15:27;;;;;;;;;;;;;;;9.78;76.80;100128.22;1089528;39;20368;-80
2022/09/19 06:16:28;;;;;;;;;;;;;;;9.73;76.95;100124.28;1087335;54;19942;-79
2022/09/19 06:17:35;;;;;;;;;;;;;;;9.67;76.96;100126.53;1087593;54;19927;-80
2022/09/19 06:18:36;;;;;;;;;;;;;;;9.81;77.06;100119.94;1087841;54;19943;-80
2022/09/19 06:19:40;;;;;;;;;;;;;;;9.92;76.75;100124.31;1087852;54;19942;-79
2022/09/19 06:20:46;;;;;;;;;;;;;;;9.90;76.52;100117.41;1087821;54;19958;-80
2022/09/19 06:21:47;;;;;;;;;;;;;;;9.92;76.42;100116.28;1087858;54;20017;-80
2022/09/19 06:22:51;;;;;;;;;;;;;;;9.81;76.74;100129.75;1087656;54;19942;-79
2022/09/19 06:23:52;;;;;;;;;;;;;;;9.88;76.60;100132.72;1087739;54;19955;-79
2022/09/19 06:24:55;;;;;;;;;;;;;;;9.83;76.49;100139.31;1087506;54;19997;-80
2022/09/19 06:25:56;;;;;;;;;;;;;;;9.93;76.49;100139.34;1087627;54;19950;-80
2022/09/19 06:27:00;;;;;;;;;;;;;;;9.94;76.04;100137.50;1087675;54;19978;-79
2022/09/19 06:28:03;;;;;;;;;;;;;;;9.99;76.65;100143.28;1087515;54;19965;-79
2022/09/19 06:29:07;;;;;;;;;;;;;;;10.06;76.26;100139.06;1087574;54;19927;-79
2022/09/19 06:30:08;;;;;;;;;;;;;;;9.92;76.43;100147.50;1088848;39;20180;-79
2022/09/19 06:31:12;;;;;;;;;;;;;;;9.86;76.57;100146.22;1087585;54;19927;-79
2022/09/19 06:32:13;;;;;;;;;;;;;;;9.88;76.47;100146.91;1087477;54;19949;-81
2022/09/19 06:33:19;;;;;;;;;;;;;;;9.93;76.80;100154.50;1087603;54;19958;-79
2022/09/19 06:34:21;;;;;;;;;;;;;;;10.01;76.37;100157.38;1087535;54;19972;-80
2022/09/19 06:35:26;;;;;;;;;;;;;;;9.90;76.49;100150.28;1089489;39;20730;-79
2022/09/19 06:36:29;;;;;;;;;;;;;;;9.89;76.81;100161.13;1087573;54;19950;-80
2022/09/19 06:37:30;;;;;;;;;;;;;;;10.01;76.48;100154.69;1087759;54;19954;-80
2022/09/19 06:38:35;;;;;;;;;;;;;;;9.95;76.50;100152.56;1087761;54;19943;-79
2022/09/19 06:39:37;;;;;;;;;;;;;;;10.00;76.52;100150.31;1087714;54;20003;-82
2022/09/19 06:40:43;;;;;;;;;;;;;;;10.04;76.40;100158.91;1087641;54;19942;-81
2022/09/19 06:41:47;;;;;;;;;;;;;;;10.10;76.23;100161.88;1087724;54;19939;-80
2022/09/19 06:42:48;;;;;;;;;;;;;;;10.10;76.28;100161.00;1092279;39;20589;-79
2022/09/19 06:43:52;;;;;;;;;;;;;;;10.08;76.57;100158.50;1087632;54;20664;-79
2022/09/19 06:44:53;;;;;;;;;;;;;;;10.22;76.19;100156.38;1087611;54;19946;-79
2022/09/19 06:45:57;;;;;;;;;;;;;;;10.06;76.13;100159.63;1087415;54;20267;-79
2022/09/19 06:46:59;;;;;;;;;;;;;;;10.06;76.29;100165.78;1087817;54;19946;-80
2022/09/19 06:48:03;;;;;;;;;;;;;;;10.05;76.40;100161.44;1087776;54;19943;-78
2022/09/19 06:49:09;;;;;;;;;;;;;;;10.13;76.38;100161.56;1087737;54;19938;-79
2022/09/19 06:50:13;;;;;;;;;;;;;;;10.14;76.06;100162.44;1087709;54;20761;-80
2022/09/19 06:51:17;;;;;;;;;;;;;;;10.12;76.26;100159.06;1087822;54;19945;-80
2022/09/19 06:52:18;;;;;;;;;;;;;;;9.94;76.19;100161.53;1087337;54;19942;-81
2022/09/19 06:53:22;;;;;;;;;;;;;;;10.03;76.13;100174.06;1087589;54;19943;-80
2022/09/19 06:54:26;;;;;;;;;;;;;;;10.15;76.39;100164.94;1087683;54;19943;-80
2022/09/19 06:55:30;;;;;;;;;;;;;;;10.18;76.25;100157.66;1087695;54;19942;-80
2022/09/19 06:56:34;;;;;;;;;;;;;;;10.13;76.00;100172.25;1087828;54;19943;-81
2022/09/19 06:57:35;;;;;;;;;;;;;;;10.21;76.15;100168.91;1087689;54;19950;-80
2022/09/19 06:58:39;;;;;;;;;;;;;;;10.34;75.95;100167.78;1087502;54;19950;-79
2022/09/19 06:59:40;;;;;;;;;;;;;;;10.33;75.46;100174.94;1087592;54;19942;-79
2022/09/19 07:00:44;;;;;;;;;;;;;;;10.27;75.49;100167.50;1087621;54;19959;-79
2022/09/19 07:01:45;;;;;;;;;;;;;;;10.26;76.05;100165.81;1087685;54;19942;-80
2022/09/19 07:02:49;;;;;;;;;;;;;;;10.33;75.21;100166.94;1087675;54;20532;-80
2022/09/19 07:03:53;;;;;;;;;;;;;;;10.36;75.20;100177.34;1087572;54;19946;-83
2022/09/19 07:04:56;;;;;;;;;;;;;;;10.46;75.36;100174.69;1087650;54;19943;-80
2022/09/19 07:06:02;;;;;;;;;;;;;;;10.54;75.11;100180.16;1087555;54;19951;-80
2022/09/19 07:07:03;;;;;;;;;;;;;;;10.48;75.34;100182.59;1087577;54;20028;-80
2022/09/19 07:08:07;;;;;;;;;;;;;;;10.48;74.80;100180.75;1087435;54;19954;-80
2022/09/19 07:09:08;;;;;;;;;;;;;;;10.48;74.94;100177.25;1087609;54;19951;-79
2022/09/19 07:10:12;;;;;;;;;;;;;;;10.43;75.21;100183.84;1087495;54;19950;-79
2022/09/19 07:11:13;;;;;;;;;;;;;;;10.53;75.31;100180.31;1087568;54;19922;-80
2022/09/19 07:12:17;;;;;;;;;;;;;;;10.56;74.95;100188.06;1087448;54;20015;-79
2022/09/19 07:13:19;;;;;;;;;;;;;;;10.69;74.99;100190.44;1087624;54;19943;-80
2022/09/19 07:14:23;;;;;;;;;;;;;;;10.63;74.92;100181.16;1087606;54;19942;-80
2022/09/19 07:15:24;;;;;;;;;;;;;;;10.61;74.48;100186.66;1087502;54;19946;-79
2022/09/19 07:16:28;;;;;;;;;;;;;;;10.61;74.30;100184.00;1088249;39;20876;-80
2022/09/19 07:17:29;;;;;;;;;;;;;;;10.56;74.51;100190.75;1087616;39;20346;-80
2022/09/19 07:18:36;;;;;;;;;;;;;;;10.54;74.56;100188.19;1087456;54;19957;-80
2022/09/19 07:19:37;;;;;;;;;;;;;;;10.43;74.86;100191.88;1087312;54;20496;-80
2022/09/19 07:20:44;;;;;;;;;;;;;;;10.41;74.73;100183.13;1087334;54;19942;-80
2022/09/19 07:21:45;;;;;;;;;;;;;;;10.45;74.87;100192.56;1087520;54;19946;-79
2022/09/19 07:22:49;;;;;;;;;;;;;;;10.47;75.05;100186.25;1087584;54;19949;-78
2022/09/19 07:23:50;;;;;;;;;;;;;;;10.51;75.09;100190.31;1087496;54;19948;-80
2022/09/19 07:24:54;;;;;;;;;;;;;;;10.47;75.20;100188.91;1087419;54;19943;-80
2022/09/19 07:25:55;;;;;;;;;;;;;;;10.41;75.21;100188.47;1087312;54;19942;-80
2022/09/19 07:26:59;;;;;;;;;;;;;;;10.42;75.19;100187.50;1087469;54;19981;-80
2022/09/19 07:28:01;;;;;;;;;;;;;;;10.36;75.10;100190.72;1087523;54;19942;-80
2022/09/19 07:29:05;;;;;;;;;;;;;;;10.40;75.19;100194.81;1087561;54;19956;-80
2022/09/19 07:30:07;;;;;;;;;;;;;;;10.43;75.19;100197.22;1087811;39;20491;-80
2022/09/19 07:31:11;;;;;;;;;;;;;;;10.56;74.79;100193.41;1087590;54;19950;-81
2022/09/19 07:32:12;;;;;;;;;;;;;;;10.64;74.47;100192.69;1087586;54;19950;-81
2022/09/19 07:33:19;;;;;;;;;;;;;;;10.61;74.20;100193.81;1088042;46;19950;-80
2022/09/19 07:34:22;;;;;;;;;;;;;;;10.65;74.39;100197.91;1087479;54;19946;-80
2022/09/19 07:35:26;;;;;;;;;;;;;;;10.68;74.37;100202.13;1087528;54;19954;-80
2022/09/19 07:36:30;;;;;;;;;;;;;;;10.70;74.32;100208.19;1087466;54;20595;-80
2022/09/19 07:37:34;;;;;;;;;;;;;;;10.63;74.51;100204.41;1087345;54;19942;-80
2022/09/19 07:38:37;;;;;;;;;;;;;;;10.70;74.30;100208.19;1087420;54;19943;-80
2022/09/19 07:39:39;;;;;;;;;;;;;;;10.78;73.98;100208.31;1087228;54;19953;-80
2022/09/19 07:40:43;;;;;;;;;;;;;;;10.81;73.63;100209.84;1087318;54;19950;-80
2022/09/19 07:41:49;;;;;;;;;;;;;;;10.84;73.63;100217.59;1087248;54;19977;-80
2022/09/19 07:42:51;;;;;;;;;;;;;;;10.60;73.96;100219.72;1087277;54;19950;-79
2022/09/19 07:43:55;;;;;;;;;;;;;;;10.71;73.73;100213.38;1087517;54;19942;-80
2022/09/19 07:44:56;;;;;;;;;;;;;;;10.79;73.72;100218.03;1087426;54;19943;-81
2022/09/19 07:45:59;;;;;;;;;;;;;;;10.66;74.02;100215.66;1087233;54;20003;-79
2022/09/19 07:48:22;;;;;;;;;;;;;;;10.64;73.84;100220.28;1087488;54;19947;-81
2022/09/19 07:49:24;;;;;;;;;;;;;;;10.68;73.84;100219.00;1087570;54;19942;-80
2022/09/19 07:50:28;;;;;;;;;;;;;;;10.70;73.80;100219.72;1087491;54;19949;-81
2022/09/19 07:51:35;;;;;;;;;;;;;;;10.81;73.48;100217.88;1090487;39;20453;-80
2022/09/19 07:53:57;;;;;;;;;;;;;;;10.89;73.38;100226.91;1093872;47;19943;-82
2022/09/19 07:55:14;;;;;;;;;;;;;;;10.93;73.44;100227.44;1088101;54;19927;-83
2022/09/19 07:58:46;;;;;;;;;;;;;;;10.83;73.27;100231.97;1088250;54;19927;-84
2022/09/19 08:06:33;;;;;;;;;;;;;;;11.10;72.50;100238.41;1076944;54;19946;-85
2022/09/19 08:15:24;;;;;;;;;;;;;;;11.17;72.18;100250.22;1077974;54;19942;-84
2022/09/19 08:16:25;;;;;;;;;;;;;;;11.12;72.26;100252.47;1095803;47;19958;-85
2022/09/19 08:56:41;;;;;;;;;;;;;;;11.88;69.04;100270.28;1088388;54;20995;-83
2022/09/19 08:57:58;;;;;;;;;;;;;;;11.88;68.80;100272.13;1088758;54;19953;-82
2022/09/19 09:22:46;;;;;;;;;;;;;;;12.13;68.40;100279.50;1081452;54;19949;-83
2022/09/19 09:57:28;;;;;;;;;;;;;;;12.63;66.65;100283.56;1088642;54;19926;-81
2022/09/19 09:58:36;;;;;;;;;;;;;;;12.77;66.59;100286.69;1092598;39;20497;-83
2022/09/19 10:30:52;;;;;;;;;;;;;;;12.69;67.10;100282.13;1087740;54;19943;-83
2022/09/19 10:51:59;;;;;;;;;;;;;;;12.73;67.86;100280.81;1089122;39;20903;-84
2022/09/19 11:00:04;;;;;;;;;;;;;;;12.84;67.77;100274.38;1087443;54;19990;-83
2022/09/19 11:01:19;;;;;;;;;;;;;;;12.70;67.59;100286.50;1088576;54;19946;-82
2022/09/19 11:02:26;;;;;;;;;;;;;;;12.87;67.34;100282.09;1089451;39;20491;-84
2022/09/19 11:03:31;;;;;;;;;;;;;;;12.84;67.39;100276.19;1088769;46;19943;-83
2022/09/19 11:16:25;;;;;;;;;;;;;;;13.03;66.85;100285.94;1086927;54;19945;-79
2022/09/19 11:17:37;;;;;;;;;;;;;;;12.96;66.82;100280.34;1087376;54;19957;-80
2022/09/19 11:18:52;;;;;;;;;;;;;;;12.89;66.52;100281.97;1087561;54;19953;-79
2022/09/19 11:20:05;;;;;;;;;;;;;;;13.04;66.51;100282.22;1087541;54;19973;-80
2022/09/19 11:21:12;;;;;;;;;;;;;;;13.18;66.32;100288.88;1087571;54;20002;-79
2022/09/19 11:22:18;;;;;;;;;;;;;;;13.26;66.16;100286.28;1087603;54;19935;-79
2022/09/19 11:23:45;;;;;;;;;;;;;;;13.17;66.29;100288.06;1087697;54;19950;-81
2022/09/19 11:24:55;;;;;;;;;;;;;;;13.21;66.29;100281.38;1088290;39;20436;-80
2022/09/19 11:26:03;;;;;;;;;;;;;;;13.16;66.57;100283.69;1087567;54;19946;-80
2022/09/19 11:27:20;;;;;;;;;;;;;;;13.14;66.50;100285.66;1087506;54;19950;-81
2022/09/19 11:28:30;;;;;;;;;;;;;;;13.20;65.93;100282.38;1087984;46;20674;-80
2022/09/19 11:29:54;;;;;;;;;;;;;;;13.25;65.96;100280.06;1087455;54;19973;-82
2022/09/19 11:31:05;;;;;;;;;;;;;;;13.31;66.01;100275.91;1087565;54;19943;-80
2022/09/19 11:32:14;;;;;;;;;;;;;;;13.36;65.91;100278.97;1087618;54;19974;-81
2022/09/19 11:33:30;;;;;;;;;;;;;;;13.48;65.86;100281.41;1087645;54;19950;-82
2022/09/19 11:34:36;;;;;;;;;;;;;;;13.56;65.77;100276.94;1087560;54;19943;-81
2022/09/19 11:35:44;;;;;;;;;;;;;;;13.52;65.60;100283.63;1087661;54;19949;-80
2022/09/19 11:36:53;;;;;;;;;;;;;;;13.56;65.29;100287.69;1087528;54;19950;-80
2022/09/19 11:39:06;;;;;;;;;;;;;;;13.72;65.25;100280.72;1091356;39;20451;-80
2022/09/19 11:40:17;;;;;;;;;;;;;;;13.76;65.05;100276.72;1087168;54;19965;-80
2022/09/19 11:41:30;;;;;;;;;;;;;;;13.61;64.86;100284.53;1087501;54;19939;-80
2022/09/19 11:42:39;;;;;;;;;;;;;;;13.66;64.83;100278.69;1087451;54;19943;-80
2022/09/19 11:43:49;;;;;;;;;;;;;;;13.62;65.38;100280.84;1087336;54;20007;-79
2022/09/19 11:44:59;;;;;;;;;;;;;;;13.52;65.09;100275.56;1087432;54;19970;-80
2022/09/19 11:46:05;;;;;;;;;;;;;;;13.57;64.63;100273.25;1087586;54;19947;-79
2022/09/19 11:47:25;;;;;;;;;;;;;;;13.52;64.69;100270.19;1087423;54;19958;-79
2022/09/19 11:48:44;;;;;;;;;;;;;;;13.66;64.43;100274.13;1087391;54;19943;-80
2022/09/19 11:50:02;;;;;;;;;;;;;;;13.65;64.81;100269.75;1087572;54;19954;-80
2022/09/19 11:51:10;;;;;;;;;;;;;;;13.63;64.97;100281.69;1087512;54;19966;-80
2022/09/19 11:52:17;;;;;;;;;;;;;;;13.70;64.98;100270.13;1087419;54;19949;-80
2022/09/19 11:54:58;;;;;;;;;;;;;;;13.64;65.08;100267.25;1087578;54;20500;-81
2022/09/19 11:56:07;;;;;;;;;;;;;;;13.83;64.80;100272.38;1087893;54;19969;-79
2022/09/19 11:57:15;;;;;;;;;;;;;;;13.76;64.34;100265.13;1091504;47;20619;-79
